createdAt,value
2018-09-26T00:02:19.552Z,103391.14
2018-09-26T00:04:50.841Z,103384.00
2018-09-26T00:07:19.356Z,103388.92
2018-09-26T00:09:47.926Z,103379.05
2018-09-26T00:12:16.496Z,103377.30
2018-09-26T00:14:45.050Z,103374.47
2018-09-26T00:17:13.559Z,103361.68
2018-09-26T00:19:42.114Z,103366.49
2018-09-26T00:22:10.638Z,103365.67
2018-09-26T00:24:39.176Z,103356.98
2018-09-26T00:27:07.696Z,103338.48
2018-09-26T00:29:36.239Z,103341.34
2018-09-26T00:32:04.865Z,103343.31
2018-09-26T00:34:33.392Z,103342.16
2018-09-26T00:37:01.912Z,103344.78
2018-09-26T00:39:30.432Z,103336.16
2018-09-26T00:41:58.986Z,103326.31
2018-09-26T00:44:27.511Z,103318.55
2018-09-26T00:46:56.066Z,103319.98
2018-09-26T00:49:24.575Z,103318.45
2018-09-26T00:51:53.114Z,103316.67
2018-09-26T00:54:21.636Z,103330.75
2018-09-26T00:56:50.169Z,103330.53
2018-09-26T00:59:18.719Z,103325.11
2018-09-26T01:01:47.270Z,103316.20
2018-09-26T01:04:15.783Z,103309.64
2018-09-26T01:06:44.352Z,103302.01
2018-09-26T01:09:12.881Z,103294.44
2018-09-26T01:11:41.431Z,103288.45
2018-09-26T01:14:09.968Z,103285.67
2018-09-26T01:16:38.515Z,103284.25
2018-09-26T01:19:07.041Z,103286.03
2018-09-26T01:21:35.614Z,103280.50
2018-09-26T01:24:04.149Z,103270.94
2018-09-26T01:26:32.672Z,103274.91
2018-09-26T01:29:01.216Z,103272.21
2018-09-26T01:31:29.808Z,103278.36
2018-09-26T01:33:58.384Z,103278.78
2018-09-26T01:36:26.887Z,103283.05
2018-09-26T01:38:55.438Z,103283.75
2018-09-26T01:41:24.014Z,103290.81
2018-09-26T01:43:52.563Z,103284.42
2018-09-26T01:46:21.082Z,103280.48
2018-09-26T01:48:49.627Z,103292.61
2018-09-26T01:51:18.161Z,103289.39
2018-09-26T01:53:46.718Z,103291.98
2018-09-26T01:56:15.233Z,103285.91
2018-09-26T01:58:43.784Z,103293.96
2018-09-26T02:01:12.296Z,103287.94
2018-09-26T02:03:40.836Z,103283.63
2018-09-26T02:06:09.388Z,103280.28
2018-09-26T02:08:37.988Z,103273.11
2018-09-26T02:11:06.629Z,103270.30
2018-09-26T02:13:35.214Z,103265.95
2018-09-26T02:16:03.752Z,103265.46
2018-09-26T02:18:32.309Z,103260.66
2018-09-26T02:21:00.816Z,103258.67
2018-09-26T02:23:29.393Z,103262.52
2018-09-26T02:25:57.890Z,103267.22
2018-09-26T02:28:26.445Z,103265.33
2018-09-26T02:30:54.960Z,103258.91
2018-09-26T02:33:23.499Z,103244.58
2018-09-26T02:35:52.049Z,103253.09
2018-09-26T02:38:20.556Z,103246.41
2018-09-26T02:40:49.098Z,103248.25
2018-09-26T02:43:18.087Z,103243.95
2018-09-26T02:45:46.631Z,103247.66
2018-09-26T02:48:20.304Z,103241.34
2018-09-26T02:50:48.843Z,103242.95
2018-09-26T02:53:17.339Z,103243.45
2018-09-26T02:55:46.007Z,103239.38
2018-09-26T02:58:14.484Z,103239.74
2018-09-26T03:00:43.021Z,103233.58
2018-09-26T03:03:11.545Z,103229.74
2018-09-26T03:05:40.085Z,103216.77
2018-09-26T03:08:08.612Z,103200.86
2018-09-26T03:10:37.160Z,103199.11
2018-09-26T03:13:05.675Z,103180.84
2018-09-26T03:15:34.229Z,103199.97
2018-09-26T03:18:02.789Z,103201.23
2018-09-26T03:20:31.337Z,103208.52
2018-09-26T03:22:59.885Z,103203.68
2018-09-26T03:25:28.445Z,103201.47
2018-09-26T03:27:56.957Z,103196.52
2018-09-26T03:30:25.472Z,103186.41
2018-09-26T03:32:54.032Z,103187.55
2018-09-26T03:35:22.540Z,103181.38
2018-09-26T03:37:51.086Z,103185.81
2018-09-26T03:40:19.600Z,103180.50
2018-09-26T03:42:48.145Z,103183.59
2018-09-26T03:45:16.666Z,103170.86
2018-09-26T03:47:45.205Z,103161.36
2018-09-26T03:50:13.752Z,103173.07
2018-09-26T03:52:42.291Z,103174.94
2018-09-26T03:55:11.139Z,103173.83
2018-09-26T03:57:39.693Z,103176.05
2018-09-26T04:00:08.236Z,103168.76
2018-09-26T04:02:36.781Z,103160.10
2018-09-26T04:05:05.471Z,103151.80
2018-09-26T04:07:34.068Z,103151.80
2018-09-26T04:10:02.583Z,103152.20
2018-09-26T04:12:31.167Z,103155.27
2018-09-26T04:14:59.693Z,103154.27
2018-09-26T04:17:28.213Z,103150.09
2018-09-26T04:19:56.783Z,103152.53
2018-09-26T04:22:25.298Z,103137.97
2018-09-26T04:24:53.845Z,103141.05
2018-09-26T04:27:22.519Z,103132.74
2018-09-26T04:29:50.952Z,103131.03
2018-09-26T04:32:19.496Z,103126.84
2018-09-26T04:34:48.084Z,103122.26
2018-09-26T04:37:16.593Z,103118.39
2018-09-26T04:39:45.136Z,103111.95
2018-09-26T04:42:13.648Z,103105.77
2018-09-26T04:44:42.208Z,103101.42
2018-09-26T04:47:10.716Z,103095.13
2018-09-26T04:49:39.265Z,103093.63
2018-09-26T04:52:07.816Z,103090.55
2018-09-26T04:54:36.356Z,103088.19
2018-09-26T04:57:04.884Z,103077.95
2018-09-26T04:59:33.432Z,103073.27
2018-09-26T05:02:01.960Z,103067.08
2018-09-26T05:04:30.552Z,103066.97
2018-09-26T05:06:59.066Z,103068.48
2018-09-26T05:09:27.609Z,103072.81
2018-09-26T05:11:56.157Z,103071.56
2018-09-26T05:14:24.658Z,103066.27
2018-09-26T05:16:53.203Z,103064.16
2018-09-26T05:19:21.712Z,103053.78
2018-09-26T05:21:50.321Z,103048.73
2018-09-26T05:24:18.892Z,103049.95
2018-09-26T05:26:47.464Z,103050.31
2018-09-26T05:29:15.965Z,103048.34
2018-09-26T05:31:44.542Z,103052.66
2018-09-26T05:34:13.064Z,103044.36
2018-09-26T05:36:41.644Z,103043.86
2018-09-26T05:39:11.695Z,103040.53
2018-09-26T05:41:40.256Z,103035.30
2018-09-26T05:44:09.091Z,103031.20
2018-09-26T05:46:37.624Z,103033.28
2018-09-26T05:49:06.131Z,103037.50
2018-09-26T05:51:34.701Z,103028.19
2018-09-26T05:54:03.222Z,103025.09
2018-09-26T05:56:31.728Z,103021.97
2018-09-26T05:59:00.320Z,103016.98
2018-09-26T06:01:28.855Z,103015.95
2018-09-26T06:03:57.381Z,103017.77
2018-09-26T06:06:25.928Z,103015.02
2018-09-26T06:08:54.456Z,103010.61
2018-09-26T06:11:22.996Z,103006.59
2018-09-26T06:13:51.556Z,103008.02
2018-09-26T06:16:20.081Z,102988.11
2018-09-26T06:18:48.660Z,102982.09
2018-09-26T06:21:17.313Z,102979.25
2018-09-26T06:23:45.855Z,102971.63
2018-09-26T06:26:14.360Z,102971.77
2018-09-26T06:28:42.912Z,102982.83
2018-09-26T06:31:11.438Z,102988.08
2018-09-26T06:33:39.995Z,102987.88
2018-09-26T06:36:08.528Z,102990.78
2018-09-26T06:38:37.067Z,102986.55
2018-09-26T06:41:05.608Z,102976.86
2018-09-26T06:43:34.181Z,102971.77
2018-09-26T06:46:02.692Z,102985.31
2018-09-26T06:48:31.241Z,102997.94
2018-09-26T06:50:59.775Z,103004.73
2018-09-26T06:53:28.329Z,102983.39
2018-09-26T06:55:56.891Z,102982.87
2018-09-26T06:58:25.429Z,102976.45
2018-09-26T07:00:53.945Z,102975.52
2018-09-26T07:03:22.484Z,102978.94
2018-09-26T07:05:51.058Z,102982.75
2018-09-26T07:08:19.621Z,102978.06
2018-09-26T07:10:48.140Z,102965.83
2018-09-26T07:13:16.850Z,102975.44
2018-09-26T07:15:45.381Z,102970.02
2018-09-26T07:18:13.925Z,102979.88
2018-09-26T07:20:42.510Z,102978.56
2018-09-26T07:23:11.068Z,102996.08
2018-09-26T07:25:39.636Z,102995.48
2018-09-26T07:28:08.199Z,102988.87
2018-09-26T07:30:36.734Z,102989.13
2018-09-26T07:33:05.324Z,102995.11
2018-09-26T07:35:34.069Z,102997.68
2018-09-26T07:38:02.738Z,102999.77
2018-09-26T07:40:31.324Z,102999.30
2018-09-26T07:42:59.896Z,103001.53
2018-09-26T07:45:28.476Z,102997.84
2018-09-26T07:47:57.024Z,102994.86
2018-09-26T07:50:25.549Z,102995.11
2018-09-26T07:52:54.091Z,102993.14
2018-09-26T07:55:22.666Z,102998.11
2018-09-26T07:57:51.198Z,102998.05
2018-09-26T08:00:19.754Z,102986.62
2018-09-26T08:02:48.285Z,102976.73
2018-09-26T08:05:16.835Z,102965.67
2018-09-26T08:07:45.380Z,102957.12
2018-09-26T08:10:13.972Z,102943.30
2018-09-26T08:12:42.516Z,102951.33
2018-09-26T08:15:11.083Z,102959.57
2018-09-26T08:17:39.583Z,102951.91
2018-09-26T08:20:08.160Z,102950.08
2018-09-26T08:22:36.689Z,102948.98
2018-09-26T08:25:05.260Z,102944.94
2018-09-26T08:27:33.775Z,102946.06
2018-09-26T08:30:02.335Z,102957.05
2018-09-26T08:32:30.897Z,102944.92
2018-09-26T08:34:59.459Z,102936.45
2018-09-26T08:37:27.979Z,102916.80
2018-09-26T08:39:56.524Z,102915.27
2018-09-26T08:42:25.041Z,102921.84
2018-09-26T08:44:53.956Z,102922.06
2018-09-26T08:47:22.495Z,102921.73
2018-09-26T08:49:51.032Z,102911.95
2018-09-26T08:52:19.544Z,102919.16
2018-09-26T08:54:48.091Z,102915.96
2018-09-26T08:57:16.612Z,102911.64
2018-09-26T08:59:45.225Z,102916.27
2018-09-26T09:02:13.752Z,102912.79
2018-09-26T09:04:42.300Z,102910.34
2018-09-26T09:07:10.811Z,102878.05
2018-09-26T09:09:39.340Z,102889.88
2018-09-26T09:12:07.872Z,102874.73
2018-09-26T09:14:36.444Z,102874.70
2018-09-26T09:17:04.972Z,102870.16
2018-09-26T09:19:33.515Z,102866.86
2018-09-26T09:22:02.030Z,102870.55
2018-09-26T09:24:30.561Z,102862.56
2018-09-26T09:26:59.117Z,102870.75
2018-09-26T09:29:27.755Z,102873.08
2018-09-26T09:31:56.292Z,102863.92
2018-09-26T09:34:24.864Z,102860.56
2018-09-26T09:36:53.379Z,102864.69
2018-09-26T09:39:21.916Z,102861.73
2018-09-26T09:41:50.431Z,102868.09
2018-09-26T09:44:18.988Z,102877.20
2018-09-26T09:46:47.525Z,102862.71
2018-09-26T09:49:16.051Z,102865.22
2018-09-26T09:51:44.763Z,102859.52
2018-09-26T09:54:13.139Z,102861.88
2018-09-26T09:56:41.677Z,102853.03
2018-09-26T09:59:10.204Z,102843.32
2018-09-26T10:01:38.758Z,102851.48
2018-09-26T10:04:07.300Z,102846.99
2018-09-26T10:06:35.864Z,102835.81
2018-09-26T10:09:05.725Z,102831.59
2018-09-26T10:11:34.274Z,102825.94
2018-09-26T10:14:02.848Z,102822.13
2018-09-26T10:16:31.394Z,102814.96
2018-09-26T10:18:59.986Z,102812.47
2018-09-26T10:21:28.540Z,102811.89
2018-09-26T10:23:57.052Z,102811.88
2018-09-26T10:26:25.707Z,102820.61
2018-09-26T10:28:54.187Z,102808.20
2018-09-26T10:31:22.851Z,102800.93
2018-09-26T10:33:51.398Z,102791.08
2018-09-26T10:36:19.949Z,102786.85
2018-09-26T10:38:48.461Z,102779.91
2018-09-26T10:41:17.004Z,102767.94
2018-09-26T10:43:45.510Z,102771.72
2018-09-26T10:46:14.076Z,102772.30
2018-09-26T10:48:42.598Z,102770.80
2018-09-26T10:51:11.142Z,102763.49
2018-09-26T10:53:39.662Z,102756.08
2018-09-26T10:56:08.280Z,102760.36
2018-09-26T10:58:36.792Z,102758.50
2018-09-26T11:01:05.340Z,102750.37
2018-09-26T11:03:33.854Z,102743.73
2018-09-26T11:06:02.395Z,102744.35
2018-09-26T11:08:30.911Z,102738.14
2018-09-26T11:10:59.555Z,102733.98
2018-09-26T11:13:28.074Z,102729.30
2018-09-26T11:15:56.616Z,102734.52
2018-09-26T11:18:25.137Z,102737.12
2018-09-26T11:20:53.678Z,102727.23
2018-09-26T11:23:22.195Z,102723.45
2018-09-26T11:25:50.746Z,102718.06
2018-09-26T11:28:19.286Z,102704.34
2018-09-26T11:30:47.888Z,102701.36
2018-09-26T11:33:16.487Z,102704.45
2018-09-26T11:35:45.029Z,102712.36
2018-09-26T11:38:13.581Z,102700.14
2018-09-26T11:40:42.152Z,102684.86
2018-09-26T11:43:10.666Z,102688.92
2018-09-26T11:45:39.228Z,102677.80
2018-09-26T11:48:07.749Z,102686.59
2018-09-26T11:50:36.256Z,102678.95
2018-09-26T11:53:04.807Z,102676.84
2018-09-26T11:55:33.343Z,102668.70
2018-09-26T11:58:01.892Z,102661.54
2018-09-26T12:00:30.416Z,102660.56
2018-09-26T12:02:58.974Z,102659.65
2018-09-26T12:05:27.508Z,102659.86
2018-09-26T12:07:56.060Z,102662.78
2018-09-26T12:10:24.723Z,102654.87
2018-09-26T12:12:53.223Z,102657.61
2018-09-26T12:15:21.725Z,102661.58
2018-09-26T12:17:50.263Z,102656.67
2018-09-26T12:20:18.780Z,102646.49
2018-09-26T12:22:47.344Z,102640.34
2018-09-26T12:25:15.889Z,102632.92
2018-09-26T12:27:44.492Z,102626.53
2018-09-26T12:30:13.102Z,102620.97
2018-09-26T12:32:41.649Z,102608.48
2018-09-26T12:35:10.188Z,102603.66
2018-09-26T12:37:38.737Z,102603.52
2018-09-26T12:40:07.869Z,102596.00
2018-09-26T12:42:36.419Z,102599.15
2018-09-26T12:45:04.980Z,102584.33
2018-09-26T12:47:33.537Z,102590.45
2018-09-26T12:50:02.075Z,102589.31
2018-09-26T12:52:30.627Z,102586.74
2018-09-26T12:54:59.181Z,102593.97
2018-09-26T12:57:27.810Z,102589.93
2018-09-26T12:59:56.325Z,102572.17
2018-09-26T13:02:24.997Z,102563.33
2018-09-26T13:04:53.452Z,102563.98
2018-09-26T13:07:22.000Z,102552.75
2018-09-26T13:09:50.545Z,102541.38
2018-09-26T13:12:19.179Z,102540.77
2018-09-26T13:14:47.677Z,102545.34
2018-09-26T13:17:16.219Z,102544.48
2018-09-26T13:19:44.761Z,102537.62
2018-09-26T13:22:13.371Z,102531.62
2018-09-26T13:24:41.898Z,102524.91
2018-09-26T13:27:10.468Z,102533.41
2018-09-26T13:29:38.997Z,102521.26
2018-09-26T13:32:07.575Z,102520.77
2018-09-26T13:34:36.094Z,102525.47
2018-09-26T13:37:04.645Z,102514.54
2018-09-26T13:39:33.191Z,102512.97
2018-09-26T13:42:01.749Z,102502.97
2018-09-26T13:44:30.284Z,102495.81
2018-09-26T13:46:58.875Z,102498.69
2018-09-26T13:49:27.403Z,102506.25
2018-09-26T13:51:55.946Z,102512.03
2018-09-26T13:54:24.477Z,102511.66
2018-09-26T13:56:53.035Z,102508.00
2018-09-26T13:59:21.622Z,102508.42
2018-09-26T14:01:50.172Z,102504.55
2018-09-26T14:04:18.736Z,102515.33
2018-09-26T14:06:47.290Z,102516.72
2018-09-26T14:09:15.847Z,102510.99
2018-09-26T14:11:44.367Z,102507.50
2018-09-26T14:14:12.931Z,102504.11
2018-09-26T14:16:41.485Z,102501.22
2018-09-26T14:19:10.035Z,102486.75
2018-09-26T14:21:39.704Z,102498.47
2018-09-26T14:24:08.648Z,102489.52
2018-09-26T14:26:38.108Z,102473.23
2018-09-26T14:29:07.030Z,102481.41
2018-09-26T14:31:35.869Z,102486.86
2018-09-26T14:34:04.742Z,102491.20
2018-09-26T14:36:33.564Z,102483.87
2018-09-26T14:39:02.516Z,102486.44
2018-09-26T14:41:31.314Z,102469.95
2018-09-26T14:44:00.168Z,102470.80
2018-09-26T14:46:29.013Z,102475.34
2018-09-26T14:48:57.867Z,102475.45
2018-09-26T14:51:26.931Z,102475.25
2018-09-26T14:53:55.781Z,102480.66
2018-09-26T14:56:24.690Z,102488.96
2018-09-26T14:58:53.561Z,102483.33
2018-09-26T15:01:22.401Z,102479.29
2018-09-26T15:03:51.260Z,102479.92
2018-09-26T15:06:20.111Z,102468.21
2018-09-26T15:08:49.025Z,102471.63
2018-09-26T15:11:17.847Z,102481.41
2018-09-26T15:13:46.696Z,102472.04
2018-09-26T15:16:15.547Z,102471.09
2018-09-26T15:18:44.419Z,102474.89
2018-09-26T15:21:13.262Z,102472.47
2018-09-26T15:23:42.119Z,102470.55
2018-09-26T15:26:10.973Z,102467.37
2018-09-26T15:28:39.833Z,102469.27
2018-09-26T15:31:08.664Z,102458.64
2018-09-26T15:33:37.550Z,102468.41
2018-09-26T15:36:06.416Z,102469.28
2018-09-26T15:38:35.263Z,102475.31
2018-09-26T15:41:04.088Z,102470.85
2018-09-26T15:43:32.999Z,102467.64
2018-09-26T15:46:01.828Z,102468.67
2018-09-26T15:48:30.894Z,102475.46
2018-09-26T15:50:59.705Z,102482.44
2018-09-26T15:53:28.700Z,102479.98
2018-09-26T15:55:57.681Z,102480.80
2018-09-26T15:58:26.708Z,102479.48
2018-09-26T16:00:55.640Z,102472.67
2018-09-26T16:03:24.345Z,102472.11
2018-09-26T16:05:52.870Z,102473.77
2018-09-26T16:08:21.411Z,102468.25
2018-09-26T16:10:50.001Z,102472.30
2018-09-26T16:13:18.524Z,102478.40
2018-09-26T16:15:47.075Z,102477.45
2018-09-26T16:18:15.681Z,102478.80
2018-09-26T16:20:44.230Z,102476.57
2018-09-26T16:23:12.756Z,102475.59
2018-09-26T16:25:41.330Z,102476.97
2018-09-26T16:28:09.914Z,102476.12
2018-09-26T16:30:38.478Z,102481.37
2018-09-26T16:33:07.852Z,102489.42
2018-09-26T16:35:36.403Z,102493.96
2018-09-26T16:38:04.945Z,102488.13
2018-09-26T16:40:33.497Z,102491.28
2018-09-26T16:43:01.998Z,102489.38
2018-09-26T16:45:30.549Z,102494.77
2018-09-26T16:47:59.073Z,102494.84
2018-09-26T16:50:27.736Z,102496.97
2018-09-26T16:52:56.165Z,102488.56
2018-09-26T16:55:24.740Z,102496.38
2018-09-26T16:57:53.267Z,102491.48
2018-09-26T17:00:21.875Z,102489.75
2018-09-26T17:02:50.343Z,102494.23
2018-09-26T17:05:18.888Z,102482.23
2018-09-26T17:07:47.421Z,102484.53
2018-09-26T17:10:16.039Z,102487.61
2018-09-26T17:12:44.795Z,102493.20
2018-09-26T17:15:13.452Z,102494.34
2018-09-26T17:17:41.967Z,102494.41
2018-09-26T17:20:10.532Z,102497.74
2018-09-26T17:22:39.314Z,102492.20
2018-09-26T17:25:07.916Z,102503.72
2018-09-26T17:27:36.420Z,102502.02
2018-09-26T17:30:05.129Z,102507.01
2018-09-26T17:32:33.667Z,102503.64
2018-09-26T17:35:02.235Z,102507.07
2018-09-26T17:37:30.752Z,102508.59
2018-09-26T17:39:59.388Z,102513.17
2018-09-26T17:42:28.078Z,102515.02
2018-09-26T17:44:56.557Z,102522.44
2018-09-26T17:47:25.083Z,102524.73
2018-09-26T17:49:53.634Z,102526.56
2018-09-26T17:52:22.289Z,102515.64
2018-09-26T17:54:50.794Z,102516.49
2018-09-26T17:57:19.320Z,102513.88
2018-09-26T17:59:47.872Z,102517.02
2018-09-26T18:02:16.488Z,102513.09
2018-09-26T18:04:45.166Z,102513.17
2018-09-26T18:07:13.693Z,102516.33
2018-09-26T18:09:42.253Z,102527.35
2018-09-26T18:12:10.864Z,102517.03
2018-09-26T18:14:39.388Z,102519.26
2018-09-26T18:17:07.931Z,102518.94
2018-09-26T18:19:36.443Z,102509.69
2018-09-26T18:22:05.067Z,102508.84
2018-09-26T18:24:33.582Z,102502.70
2018-09-26T18:27:02.105Z,102504.60
2018-09-26T18:29:30.628Z,102503.23
2018-09-26T18:31:59.193Z,102503.84
2018-09-26T18:34:27.818Z,102499.24
2018-09-26T18:36:56.365Z,102501.08
2018-09-26T18:39:24.954Z,102489.67
2018-09-26T18:41:53.444Z,102489.08
2018-09-26T18:44:21.954Z,102488.50
2018-09-26T18:46:50.528Z,102487.69
2018-09-26T18:49:19.043Z,102486.60
2018-09-26T18:51:47.578Z,102490.66
2018-09-26T18:54:16.093Z,102482.15
2018-09-26T18:56:44.635Z,102479.43
2018-09-26T18:59:13.202Z,102476.36
2018-09-26T19:01:41.772Z,102474.41
2018-09-26T19:04:10.357Z,102476.17
2018-09-26T19:06:38.874Z,102481.75
2018-09-26T19:09:09.659Z,102487.95
2018-09-26T19:11:38.172Z,102487.49
2018-09-26T19:14:06.795Z,102487.87
2018-09-26T19:16:35.332Z,102477.98
2018-09-26T19:19:03.853Z,102484.78
2018-09-26T19:21:32.500Z,102491.78
2018-09-26T19:24:00.936Z,102495.77
2018-09-26T19:26:29.485Z,102490.53
2018-09-26T19:28:58.006Z,102494.36
2018-09-26T19:31:26.561Z,102492.36
2018-09-26T19:33:55.100Z,102499.39
2018-09-26T19:36:23.704Z,102493.83
2018-09-26T19:38:52.201Z,102495.35
2018-09-26T19:41:20.747Z,102490.47
2018-09-26T19:43:49.349Z,102489.35
2018-09-26T19:46:17.907Z,102482.23
2018-09-26T19:48:46.420Z,102484.46
2018-09-26T19:51:14.965Z,102477.20
2018-09-26T19:53:43.526Z,102479.50
2018-09-26T19:56:12.168Z,102482.84
2018-09-26T19:58:40.631Z,102482.38
2018-09-26T20:01:09.263Z,102478.39
2018-09-26T20:03:37.775Z,102475.44
2018-09-26T20:06:06.312Z,102479.56
2018-09-26T20:08:34.831Z,102474.73
2018-09-26T20:11:03.772Z,102475.25
2018-09-26T20:13:32.304Z,102472.16
2018-09-26T20:16:00.828Z,102466.60
2018-09-26T20:18:29.368Z,102474.05
2018-09-26T20:20:57.884Z,102471.19
2018-09-26T20:23:33.066Z,102471.56
2018-09-26T20:26:01.538Z,102475.42
2018-09-26T20:28:30.088Z,102480.86
2018-09-26T20:30:58.620Z,102477.73
2018-09-26T20:33:27.204Z,102483.91
2018-09-26T20:35:55.792Z,102480.41
2018-09-26T20:38:24.333Z,102480.38
2018-09-26T20:40:52.854Z,102476.04
2018-09-26T20:43:21.397Z,102475.72
2018-09-26T20:45:49.916Z,102484.83
2018-09-26T20:48:18.448Z,102481.34
2018-09-26T20:50:46.949Z,102478.41
2018-09-26T20:53:15.501Z,102483.52
2018-09-26T20:55:44.024Z,102484.55
2018-09-26T20:58:12.608Z,102487.13
2018-09-26T21:00:41.180Z,102482.40
2018-09-26T21:03:09.682Z,102492.89
2018-09-26T21:05:38.192Z,102494.02
2018-09-26T21:08:06.759Z,102493.17
2018-09-26T21:10:35.321Z,102502.45
2018-09-26T21:13:03.863Z,102503.98
2018-09-26T21:15:32.376Z,102496.56
2018-09-26T21:18:01.006Z,102489.89
2018-09-26T21:20:29.493Z,102493.34
2018-09-26T21:22:58.096Z,102498.86
2018-09-26T21:25:26.604Z,102500.77
2018-09-26T21:27:55.152Z,102487.37
2018-09-26T21:30:23.682Z,102476.57
2018-09-26T21:32:52.233Z,102479.33
2018-09-26T21:35:20.760Z,102468.70
2018-09-26T21:37:49.308Z,102463.58
2018-09-26T21:40:17.859Z,102468.94
2018-09-26T21:42:46.517Z,102468.77
2018-09-26T21:45:15.036Z,102469.30
2018-09-26T21:47:43.580Z,102480.77
2018-09-26T21:50:12.145Z,102488.30
2018-09-26T21:52:40.677Z,102488.75
2018-09-26T21:55:09.196Z,102499.59
2018-09-26T21:57:38.090Z,102497.69
2018-09-26T22:00:07.393Z,102501.29
2018-09-26T22:02:35.935Z,102495.05
2018-09-26T22:05:04.675Z,102497.80
2018-09-26T22:07:33.233Z,102488.69
2018-09-26T22:10:01.804Z,102495.57
2018-09-26T22:12:30.348Z,102493.66
2018-09-26T22:14:58.869Z,102501.93
2018-09-26T22:17:27.440Z,102503.12
2018-09-26T22:19:55.986Z,102508.95
2018-09-26T22:22:24.520Z,102510.02
2018-09-26T22:24:53.069Z,102508.31
2018-09-26T22:27:21.597Z,102504.36
2018-09-26T22:29:50.143Z,102501.44
2018-09-26T22:32:18.771Z,102503.84
2018-09-26T22:34:47.298Z,102503.66
2018-09-26T22:37:15.828Z,102503.45
2018-09-26T22:39:44.360Z,102506.73
2018-09-26T22:42:12.863Z,102503.98
2018-09-26T22:44:41.401Z,102507.72
2018-09-26T22:47:09.907Z,102502.07
2018-09-26T22:49:38.548Z,102497.80
2018-09-26T22:52:07.414Z,102508.50
2018-09-26T22:54:35.964Z,102496.84
2018-09-26T22:57:04.497Z,102497.86
2018-09-26T22:59:33.044Z,102494.66
2018-09-26T23:02:01.573Z,102479.19
2018-09-26T23:04:30.111Z,102490.87
2018-09-26T23:06:58.627Z,102475.05
2018-09-26T23:09:27.168Z,102483.31
2018-09-26T23:11:55.679Z,102485.75
2018-09-26T23:14:24.215Z,102485.40
2018-09-26T23:16:52.765Z,102480.24
2018-09-26T23:19:21.316Z,102479.89
2018-09-26T23:21:49.832Z,102478.20
2018-09-26T23:24:18.374Z,102488.30
2018-09-26T23:26:46.888Z,102485.75
2018-09-26T23:29:15.433Z,102485.40
2018-09-26T23:31:43.972Z,102482.15
2018-09-26T23:34:12.525Z,102481.48
2018-09-26T23:36:41.069Z,102486.78
2018-09-26T23:39:10.711Z,102483.06
2018-09-26T23:41:39.592Z,102492.88
2018-09-26T23:44:08.523Z,102494.40
2018-09-26T23:46:37.057Z,102488.75
2018-09-26T23:49:05.642Z,102485.15
2018-09-26T23:51:34.162Z,102485.67
2018-09-26T23:54:02.761Z,102488.28
2018-09-26T23:56:31.267Z,102480.23
2018-09-26T23:58:59.823Z,102489.73
